Terminal Aerodrome Forecast
Issued by NWS

Home | Current Version | Previous Version | Text Only | Print | Product List | Glossary On
Versions: 1 2 3 4 5 6 7 8 9 10 11 12 13 14 15
000
FTUS46 KLOX 010855 AAA
TAFSBA
TAF AMD
KSBA 010855Z 0109/0206 10006KT P6SM OVC015
     FM011800 16005KT P6SM BKN020
     FM012000 23008KT P6SM SKC
     FM020300 VRB03KT P6SM SKC=

USA.gov is the U.S. government's official web portal to all federal, state and local government web resources and services.